Time;durP1;ratioP1;P1;durP2;ratioP2;P2;SDS_P1;SDS_P2;PMS_P1;PMS_P2;Temp;Humidity;BMP_temperature;BMP_pressure;BME280_temperature;BME280_humidity;BME280_pressure;Samples;Min_cycle;Max_cycle;Signal;HPM_P1;HPM_P2
2023/07/10 04:22:32;;;;;;;4.15;3.38;;;;;;;22.71;92.10;100569.38;5109938;27;20729;-66
2023/07/10 04:25:04;;;;;;;5.40;3.42;;;;;;;22.79;92.07;100567.31;5109887;28;20075;-66
2023/07/10 04:27:29;;;;;;;4.53;3.50;;;;;;;22.83;91.94;100568.50;5109883;28;20035;-65
2023/07/10 04:29:54;;;;;;;4.65;3.28;;;;;;;22.86;92.05;100578.84;5109460;28;20202;-65
2023/07/10 04:32:20;;;;;;;3.60;3.10;;;;;;;22.90;92.33;100580.88;5109836;28;20093;-65
2023/07/10 04:34:45;;;;;;;5.32;3.13;;;;;;;22.92;92.42;100573.28;5109686;28;20094;-58
2023/07/10 04:37:11;;;;;;;3.58;3.15;;;;;;;22.97;92.56;100577.97;5109671;28;20044;-59
2023/07/10 04:39:36;;;;;;;3.97;3.10;;;;;;;22.95;92.64;100569.25;5109325;28;20047;-60
2023/07/10 04:42:01;;;;;;;5.15;3.30;;;;;;;22.97;92.91;100575.28;5109513;28;20157;-60
2023/07/10 04:44:27;;;;;;;4.03;3.10;;;;;;;22.99;92.85;100571.22;5109454;28;20088;-60
2023/07/10 04:46:52;;;;;;;5.38;3.47;;;;;;;23.03;93.04;100566.13;5109386;28;20028;-60
2023/07/10 04:49:19;;;;;;;4.68;3.45;;;;;;;23.03;93.19;100563.41;5109117;28;20430;-60
2023/07/10 04:51:45;;;;;;;5.15;3.47;;;;;;;23.06;93.04;100565.63;5109161;28;20043;-59
2023/07/10 04:54:10;;;;;;;5.40;3.58;;;;;;;23.10;92.91;100587.69;5109314;28;20032;-60
2023/07/10 04:56:35;;;;;;;4.30;2.85;;;;;;;23.14;92.90;100592.38;5109231;28;20129;-59
2023/07/10 04:59:01;;;;;;;4.28;3.38;;;;;;;23.16;93.06;100601.13;5108918;28;20067;-52
2023/07/10 05:01:30;;;;;;;3.30;2.95;;;;;;;23.12;93.24;100596.41;5109107;28;20047;-57
2023/07/10 05:03:56;;;;;;;4.05;3.35;;;;;;;23.15;93.13;100590.50;5109121;28;20417;-60
2023/07/10 05:06:22;;;;;;;4.30;3.00;;;;;;;23.16;93.23;100597.56;5107872;28;20050;-59
2023/07/10 05:08:50;;;;;;;6.45;2.97;;;;;;;23.07;93.49;100589.00;5108782;28;20035;-61
2023/07/10 05:11:16;;;;;;;4.63;2.83;;;;;;;23.12;93.82;100607.28;5109022;28;20458;-59
2023/07/10 05:13:41;;;;;;;4.50;3.47;;;;;;;23.11;94.41;100606.47;5108897;28;20063;-59
2023/07/10 05:16:07;;;;;;;4.53;2.90;;;;;;;23.16;94.20;100611.97;5108998;28;20078;-58
2023/07/10 05:18:32;;;;;;;4.07;3.00;;;;;;;23.17;94.31;100607.38;5108521;28;20070;-60
2023/07/10 05:20:59;;;;;;;4.75;3.10;;;;;;;23.16;94.85;100627.47;5108518;28;20051;-60
2023/07/10 05:23:26;;;;;;;5.85;3.55;;;;;;;23.19;94.61;100627.78;5108916;28;20043;-58
2023/07/10 05:25:55;;;;;;;;;;;;;;;23.24;94.60;100621.59;5109132;28;20117;-57
2023/07/10 05:28:21;;;;;;;4.53;2.92;;;;;;;23.30;94.49;100628.78;5108235;28;19967;-59
2023/07/10 05:30:46;;;;;;;4.60;3.20;;;;;;;23.40;94.62;100626.19;5108574;28;20043;-59
2023/07/10 05:33:12;;;;;;;4.15;2.97;;;;;;;23.42;94.31;100620.53;5098940;28;20044;-59
2023/07/10 05:35:37;;;;;;;4.05;3.20;;;;;;;23.52;93.64;100618.78;5094921;28;20028;-59
2023/07/10 05:38:02;;;;;;;4.75;3.17;;;;;;;23.60;93.37;100633.81;5093646;28;20082;-59
2023/07/10 05:40:28;;;;;;;5.93;3.30;;;;;;;23.71;92.95;100632.94;5094480;28;20081;-60
2023/07/10 05:42:53;;;;;;;4.55;3.30;;;;;;;23.75;92.53;100628.66;5094782;28;20043;-59
2023/07/10 05:45:19;;;;;;;4.82;3.55;;;;;;;23.86;92.03;100632.31;5094672;28;20067;-60
2023/07/10 05:47:44;;;;;;;4.75;3.35;;;;;;;23.85;92.27;100625.25;5094924;28;20071;-60
2023/07/10 05:50:09;;;;;;;4.70;3.60;;;;;;;23.91;92.24;100629.66;5094280;28;20044;-60
2023/07/10 05:52:35;;;;;;;5.15;3.13;;;;;;;24.03;91.23;100633.09;5094621;28;20044;-59
2023/07/10 05:55:00;;;;;;;8.70;3.15;;;;;;;24.05;91.69;100627.41;5094564;28;20036;-60
2023/07/10 05:57:25;;;;;;;5.72;3.30;;;;;;;24.15;91.73;100640.31;5094380;28;20378;-60
2023/07/10 05:59:51;;;;;;;3.72;3.00;;;;;;;24.15;91.44;100632.16;5094280;28;20074;-59
2023/07/10 06:02:16;;;;;;;4.03;2.88;;;;;;;24.21;90.88;100633.88;5094457;28;20079;-58
2023/07/10 06:04:42;;;;;;;3.47;2.83;;;;;;;24.28;90.38;100634.50;5094363;28;20043;-60
2023/07/10 06:07:07;;;;;;;4.75;2.80;;;;;;;24.39;90.29;100644.47;5094322;28;20051;-61
2023/07/10 06:09:33;;;;;;;3.60;3.05;;;;;;;24.42;90.33;100641.22;5094055;28;20467;-59
2023/07/10 06:11:58;;;;;;;3.60;2.63;;;;;;;24.50;89.73;100643.47;5094160;28;20039;-60
2023/07/10 06:14:24;;;;;;;5.45;3.33;;;;;;;24.53;90.42;100645.69;5094249;28;20110;-60
2023/07/10 06:16:49;;;;;;;5.50;3.28;;;;;;;24.55;89.79;100650.88;5094084;28;20594;-61
2023/07/10 06:19:16;;;;;;;6.38;3.10;;;;;;;24.63;89.80;100645.78;5092599;28;20496;-60
2023/07/10 06:21:42;;;;;;;6.43;3.40;;;;;;;24.62;90.59;100638.69;5093887;28;20044;-61
2023/07/10 06:24:07;;;;;;;6.57;3.47;;;;;;;24.68;89.96;100641.50;5094073;28;20044;-59
2023/07/10 06:26:33;;;;;;;4.43;3.50;;;;;;;24.81;90.50;100643.78;5093838;28;20047;-60
2023/07/10 06:28:58;;;;;;;4.63;3.30;;;;;;;24.77;89.49;100648.94;5093822;28;20036;-59
2023/07/10 06:31:23;;;;;;;3.75;3.00;;;;;;;24.84;90.04;100648.72;5094144;28;20047;-61
2023/07/10 06:33:50;;;;;;;5.18;3.08;;;;;;;24.82;89.83;100650.88;5093873;28;20467;-61
2023/07/10 06:36:15;;;;;;;5.13;3.10;;;;;;;24.88;89.90;100649.84;5093908;28;20032;-60
2023/07/10 06:38:41;;;;;;;3.92;3.00;;;;;;;25.04;88.98;100648.06;5093491;28;20374;-60
2023/07/10 06:41:07;;;;;;;4.03;3.10;;;;;;;25.08;88.06;100643.78;5093668;28;20044;-61
2023/07/10 06:43:33;;;;;;;3.63;3.10;;;;;;;25.08;88.68;100638.34;5093445;28;20035;-62
2023/07/10 06:45:58;;;;;;;6.47;3.58;;;;;;;25.10;88.82;100645.19;5093065;28;20047;-60
2023/07/10 06:48:24;;;;;;;4.65;3.15;;;;;;;25.11;88.86;100644.13;5093434;28;20127;-61
2023/07/10 06:50:54;;;;;;;4.15;3.10;;;;;;;25.13;88.69;100647.38;5093552;28;20089;-60
2023/07/10 06:53:21;;;;;;;4.45;2.90;;;;;;;25.17;89.00;100639.53;5093626;28;20622;-56
2023/07/10 06:56:00;;;;;;;3.90;3.10;;;;;;;25.30;88.09;100643.69;5093475;28;20036;-64
2023/07/10 06:58:26;;;;;;;3.45;2.80;;;;;;;25.32;88.82;100642.38;5093309;28;20119;-64
2023/07/10 07:00:52;;;;;;;4.30;3.40;;;;;;;25.32;89.39;100639.63;5093323;28;20032;-64
2023/07/10 07:03:17;;;;;;;4.82;3.30;;;;;;;25.41;88.08;100643.50;5093400;28;20039;-64
2023/07/10 07:05:43;;;;;;;3.95;3.30;;;;;;;25.49;86.88;100635.91;5091861;28;20036;-62
2023/07/10 07:08:09;;;;;;;4.20;3.17;;;;;;;25.54;87.75;100646.88;5093227;28;20032;-64
2023/07/10 07:10:39;;;;;;;3.08;2.70;;;;;;;25.55;86.87;100656.69;5092908;28;20032;-64
2023/07/10 07:13:05;;;;;;;4.20;3.70;;;;;;;25.77;86.88;100662.06;5093241;28;20036;-63
2023/07/10 07:15:30;;;;;;;4.95;3.35;;;;;;;25.75;87.87;100665.03;5091757;28;20032;-63
2023/07/10 07:17:55;;;;;;;4.32;2.95;;;;;;;25.86;85.94;100666.75;5093001;28;20465;-65
2023/07/10 07:20:21;;;;;;;4.53;3.17;;;;;;;25.89;86.25;100677.13;5092606;28;20032;-64
2023/07/10 07:22:46;;;;;;;4.95;3.10;;;;;;;26.01;85.44;100678.81;5092973;28;20114;-63
2023/07/10 07:25:12;;;;;;;4.28;3.30;;;;;;;26.13;84.56;100688.44;5091548;28;20040;-64
2023/07/10 07:27:37;;;;;;;3.40;2.75;;;;;;;26.21;85.05;100684.38;5074740;28;20036;-63
2023/07/10 07:30:05;;;;;;;5.57;3.20;;;;;;;26.28;85.54;100689.59;5092610;28;20040;-62
2023/07/10 07:32:31;;;;;;;3.88;3.22;;;;;;;26.42;85.85;100693.53;5092703;28;20432;-63
2023/07/10 07:34:56;;;;;;;6.15;3.95;;;;;;;26.42;84.46;100698.97;5092756;28;20036;-64
2023/07/10 07:37:22;;;;;;;4.35;2.83;;;;;;;26.53;83.96;100697.91;5092630;28;20051;-63
2023/07/10 07:39:47;;;;;;;4.22;2.88;;;;;;;26.54;83.97;100694.13;5092378;28;20040;-63
2023/07/10 07:42:12;;;;;;;4.15;2.97;;;;;;;26.57;82.65;100692.75;5092624;28;20163;-63
2023/07/10 07:44:38;;;;;;;4.40;3.22;;;;;;;26.50;83.13;100698.47;5092644;28;20047;-62
2023/07/10 07:47:04;;;;;;;5.53;3.58;;;;;;;26.45;83.74;100695.69;5092367;28;20048;-62
2023/07/10 07:49:29;;;;;;;5.45;3.35;;;;;;;26.51;82.85;100705.56;5092249;28;20036;-63
2023/07/10 07:51:54;;;;;;;3.67;2.88;;;;;;;26.52;82.03;100704.47;5091126;28;20059;-63
2023/07/10 07:54:20;;;;;;;4.55;2.97;;;;;;;26.60;82.93;100706.66;5092403;28;20032;-64
2023/07/10 07:56:45;;;;;;;5.30;3.67;;;;;;;26.77;80.37;100712.75;5092197;28;20052;-64
2023/07/10 07:59:11;;;;;;;6.07;3.08;;;;;;;26.82;79.02;100697.47;5092131;28;20118;-64
2023/07/10 08:01:36;;;;;;;3.85;3.08;;;;;;;26.85;80.07;100716.03;5092419;28;20077;-64
2023/07/10 08:04:03;;;;;;;3.53;2.97;;;;;;;26.98;80.70;100715.50;5092270;28;20514;-64
2023/07/10 08:06:30;;;;;;;3.63;2.90;;;;;;;27.01;80.21;100717.72;5092112;28;20040;-63
2023/07/10 08:08:56;;;;;;;5.03;2.85;;;;;;;27.05;79.63;100705.97;5092176;28;20062;-63
2023/07/10 08:11:21;;;;;;;4.95;3.15;;;;;;;27.15;80.04;100716.13;5092333;28;20044;-64
2023/07/10 08:13:47;;;;;;;4.53;3.08;;;;;;;27.20;79.05;100712.59;5092585;28;20042;-65
2023/07/10 08:16:13;;;;;;;4.63;3.20;;;;;;;27.31;78.70;100714.22;5091987;28;20036;-64
2023/07/10 08:18:40;;;;;;;6.15;3.08;;;;;;;27.47;76.89;100710.38;5091876;28;20505;-63
2023/07/10 08:21:08;;;;;;;5.22;3.13;;;;;;;27.64;76.18;100710.09;5091909;28;20032;-64
2023/07/10 08:23:33;;;;;;;4.88;3.00;;;;;;;27.67;75.94;100709.56;5092026;28;20032;-65
2023/07/10 08:26:00;;;;;;;4.55;3.50;;;;;;;27.78;75.71;100710.41;5091964;28;20524;-64
2023/07/10 08:28:26;;;;;;;5.13;2.92;;;;;;;27.95;75.28;100701.84;5091869;28;20469;-64
2023/07/10 08:30:51;;;;;;;4.43;3.33;;;;;;;27.91;75.59;100708.97;5092009;28;20036;-63
2023/07/10 08:33:16;;;;;;;3.53;2.88;;;;;;;27.89;76.20;100708.44;5092090;28;20100;-64
2023/07/10 08:35:42;;;;;;;3.50;3.03;;;;;;;27.98;75.32;100712.28;5091816;28;20039;-64
2023/07/10 08:38:07;;;;;;;4.80;2.70;;;;;;;28.01;75.22;100717.19;5091956;28;20036;-64
2023/07/10 08:40:36;;;;;;;3.65;2.80;;;;;;;28.11;74.77;100711.69;5091940;28;20064;-64
2023/07/10 08:43:17;;;;;;;3.45;3.13;;;;;;;28.22;75.22;100716.00;5091968;28;20043;-64
2023/07/10 08:45:46;;;;;;;3.88;3.22;;;;;;;28.38;76.25;100708.59;5091866;28;20047;-64
2023/07/10 08:48:17;;;;;;;5.80;3.35;;;;;;;28.41;73.58;100713.50;5091756;28;20165;-65
2023/07/10 08:50:44;;;;;;;3.83;3.25;;;;;;;28.36;71.88;100708.88;5091712;28;20039;-65
2023/07/10 08:53:12;;;;;;;3.53;2.65;;;;;;;28.56;72.97;100698.91;5091836;28;20048;-64
2023/07/10 08:55:56;;;;;;;4.25;3.10;;;;;;;28.39;73.00;100699.28;5091855;28;20075;-64
2023/07/10 08:58:27;;;;;;;4.10;3.25;;;;;;;28.32;71.21;100702.31;5091692;28;20071;-64
2023/07/10 09:00:57;;;;;;;6.05;3.53;;;;;;;28.19;70.38;100697.41;5091671;28;20464;-62
2023/07/10 09:03:43;;;;;;;4.22;3.20;;;;;;;28.18;73.03;100701.25;5090704;28;20398;-64
2023/07/10 09:06:23;;;;;;;3.88;3.13;;;;;;;28.11;72.61;100692.53;5091637;28;20128;-63
2023/07/10 09:08:53;;;;;;;5.30;2.97;;;;;;;28.23;73.28;100693.00;5094268;28;20032;-64
2023/07/10 09:11:19;;;;;;;4.65;3.22;;;;;;;28.24;72.64;100691.91;5095446;28;20128;-65
2023/07/10 09:13:49;;;;;;;5.68;3.72;;;;;;;28.23;73.42;100687.53;5095403;28;20043;-65
2023/07/10 09:16:18;;;;;;;4.22;3.50;;;;;;;28.28;70.72;100695.72;5095565;28;20405;-65
2023/07/10 09:19:03;;;;;;;4.30;2.97;;;;;;;28.27;70.90;100696.00;5095442;28;20488;-65
2023/07/10 09:21:32;;;;;;;3.70;2.90;;;;;;;28.18;71.31;100698.50;5095192;28;20028;-64
2023/07/10 09:23:57;;;;;;;4.18;3.00;;;;;;;28.41;71.90;100699.81;5095267;28;20039;-63
2023/07/10 09:26:30;;;;;;;3.42;3.10;;;;;;;28.62;72.06;100692.28;5095048;28;20067;-65
2023/07/10 09:29:10;;;;;;;3.50;3.20;;;;;;;28.84;70.00;100697.41;5094948;28;20044;-64
2023/07/10 09:31:46;;;;;;;4.97;3.28;;;;;;;28.94;69.42;100691.84;5095056;28;20044;-65
2023/07/10 09:34:11;;;;;;;5.03;3.20;;;;;;;29.04;67.04;100699.22;5094999;28;20123;-65
2023/07/10 09:36:37;;;;;;;4.10;3.28;;;;;;;29.09;66.52;100697.25;5094753;28;20124;-65
2023/07/10 09:39:03;;;;;;;4.60;3.15;;;;;;;29.25;66.68;100702.59;5094692;28;20044;-64
2023/07/10 09:41:29;;;;;;;4.57;3.13;;;;;;;29.17;67.48;100695.81;5094990;28;20028;-65
2023/07/10 09:44:01;;;;;;;4.40;3.80;;;;;;;29.17;68.56;100693.88;5094901;28;20412;-65
2023/07/10 09:46:32;;;;;;;4.43;3.10;;;;;;;29.31;63.73;100690.50;5094828;28;20044;-64
2023/07/10 09:49:15;;;;;;;4.30;2.97;;;;;;;29.28;63.91;100680.91;5094531;28;20115;-65
2023/07/10 09:51:54;;;;;;;3.55;3.10;;;;;;;29.34;63.71;100693.50;5094714;28;20135;-65
2023/07/10 09:54:19;;;;;;;3.80;3.28;;;;;;;29.19;63.00;100693.59;5089405;28;20096;-65
2023/07/10 09:56:47;;;;;;;4.03;3.50;;;;;;;29.05;62.77;100687.94;5081788;28;20695;-65
2023/07/10 09:59:19;;;;;;;3.90;3.00;;;;;;;29.22;66.26;100686.75;5080991;28;20373;-64
2023/07/10 10:01:48;;;;;;;5.13;3.40;;;;;;;29.66;62.29;100684.69;5084583;28;20476;-64
2023/07/10 10:04:19;;;;;;;3.08;2.78;;;;;;;30.03;61.18;100685.94;5081859;28;20036;-63
2023/07/10 10:06:55;;;;;;;3.33;2.95;;;;;;;30.37;57.12;100691.31;5086171;28;20127;-64
2023/07/10 10:09:23;;;;;;;4.70;3.30;;;;;;;30.63;56.69;100690.97;5081324;28;20410;-64
2023/07/10 10:11:52;;;;;;;3.35;3.05;;;;;;;30.89;57.57;100689.53;5082122;28;20759;-64
2023/07/10 10:14:33;;;;;;;3.70;3.30;;;;;;;30.97;55.31;100690.78;5083087;28;20039;-65
2023/07/10 10:17:05;;;;;;;4.40;3.30;;;;;;;31.16;55.90;100677.81;5073743;28;20039;-64
2023/07/10 10:19:35;;;;;;;4.00;2.78;;;;;;;31.44;51.28;100681.53;5073823;28;20029;-64
2023/07/10 10:22:08;;;;;;;5.13;2.92;;;;;;;31.24;49.91;100676.38;5073889;28;20075;-64
2023/07/10 10:24:34;;;;;;;4.40;3.55;;;;;;;31.28;49.35;100677.38;5072801;28;20078;-65
2023/07/10 10:27:22;;;;;;;3.40;2.92;;;;;;;31.12;50.39;100681.50;5073771;28;20132;-65
2023/07/10 10:30:00;;;;;;;3.25;2.72;;;;;;;31.20;50.34;100673.38;5073511;28;20028;-66
2023/07/10 10:32:56;;;;;;;4.07;3.35;;;;;;;31.43;50.49;100657.03;5073569;28;20090;-65
2023/07/10 10:35:48;;;;;;;;;;;;;;;31.74;51.88;100662.78;5074162;28;20078;-66
2023/07/10 10:38:27;;;;;;;4.03;2.90;;;;;;;31.74;49.12;100665.53;5065030;28;20007;-62
2023/07/10 10:41:12;;;;;;;2.83;2.50;;;;;;;31.90;46.84;100661.41;5073526;28;20033;-64
2023/07/10 10:43:47;;;;;;;3.00;2.47;;;;;;;32.16;46.62;100661.72;5073528;28;20125;-66
2023/07/10 10:46:15;;;;;;;5.07;3.40;;;;;;;32.35;46.29;100662.44;5073362;28;20473;-65
2023/07/10 10:48:56;;;;;;;3.83;3.10;;;;;;;32.63;45.05;100657.66;5073089;28;20485;-63
2023/07/10 10:51:30;;;;;;;4.18;2.88;;;;;;;32.84;44.58;100654.44;5073317;28;20033;-65
2023/07/10 10:54:23;;;;;;;3.50;3.10;;;;;;;33.00;44.69;100644.69;5091120;28;20503;-64
2023/07/10 10:57:20;;;;;;;3.80;3.05;;;;;;;33.18;43.05;100651.13;5093811;28;20032;-64
2023/07/10 11:00:01;;;;;;;3.13;2.47;;;;;;;33.41;43.28;100651.97;5093190;28;20123;-64
2023/07/10 11:02:45;;;;;;;3.65;2.80;;;;;;;33.22;40.96;100652.94;5093425;28;20063;-63
2023/07/10 11:05:39;;;;;;;3.22;2.80;;;;;;;33.35;40.71;100648.47;5093340;28;20057;-63
2023/07/10 11:08:13;;;;;;;4.18;3.30;;;;;;;33.60;41.77;100652.53;5093338;28;20119;-63
2023/07/10 11:10:41;;;;;;;3.88;2.80;;;;;;;33.79;40.24;100651.50;5092850;28;20036;-64
2023/07/10 11:13:31;;;;;;;4.38;3.05;;;;;;;33.86;41.44;100649.88;5093161;28;20040;-64
2023/07/10 11:15:56;;;;;;;5.15;2.95;;;;;;;33.93;40.57;100650.25;5092975;28;20042;-65
2023/07/10 11:18:23;;;;;;;3.43;2.70;;;;;;;34.26;39.54;100647.91;5092774;28;20036;-62
2023/07/10 11:20:49;;;;;;;;;;;;;;;33.81;40.41;100635.41;5093459;28;20382;-64
2023/07/10 11:23:34;;;;;;;3.58;2.58;;;;;;;33.94;41.33;100640.84;5093054;28;20061;-63
2023/07/10 11:26:15;;;;;;;3.40;2.70;;;;;;;33.53;42.06;100640.31;5092804;28;20035;-64
2023/07/10 11:28:55;;;;;;;4.15;2.97;;;;;;;33.29;42.01;100637.88;5092585;28;20348;-65
2023/07/10 11:31:30;;;;;;;3.67;2.67;;;;;;;33.28;41.37;100626.03;5092265;28;20576;-65
2023/07/10 11:34:04;;;;;;;5.07;2.97;;;;;;;33.76;41.89;100628.06;5092809;28;20089;-65
2023/07/10 11:36:33;;;;;;;4.72;2.95;;;;;;;33.70;40.99;100618.28;5092999;28;20570;-64
2023/07/10 11:39:09;;;;;;;3.83;2.53;;;;;;;33.79;40.16;100618.34;5092328;28;20024;-64
2023/07/10 11:41:36;;;;;;;5.78;2.90;;;;;;;33.62;40.62;100621.84;5092861;28;20458;-64
2023/07/10 11:44:13;;;;;;;;;;;;;;;34.02;39.90;100614.34;5093146;28;20032;-65
2023/07/10 11:46:57;;;;;;;4.25;2.55;;;;;;;33.53;39.16;100604.44;5092653;28;19916;-64
2023/07/10 11:49:26;;;;;;;3.53;2.80;;;;;;;33.07;38.43;100611.97;5092252;28;20793;-64
2023/07/10 11:52:28;;;;;;;5.40;3.03;;;;;;;32.56;39.93;100604.91;5092615;28;20111;-65
2023/07/10 11:54:56;;;;;;;6.30;2.75;;;;;;;32.28;39.93;100600.56;5087864;28;20032;-65
2023/07/10 11:57:28;;;;;;;4.45;3.15;;;;;;;32.30;40.10;100595.56;5080047;28;20047;-65
2023/07/10 11:59:54;;;;;;;4.05;2.90;;;;;;;32.54;40.71;100593.38;5071723;28;20473;-64
2023/07/10 12:02:25;;;;;;;4.32;2.95;;;;;;;33.01;38.86;100593.09;5072190;28;20036;-64
2023/07/10 12:04:51;;;;;;;3.40;2.42;;;;;;;33.10;38.04;100582.91;5072153;28;20047;-64
2023/07/10 12:07:16;;;;;;;4.50;2.80;;;;;;;33.52;37.66;100588.97;5072021;28;20036;-64
2023/07/10 12:09:41;;;;;;;3.70;2.50;;;;;;;34.21;37.35;100595.53;5070516;28;20126;-64
2023/07/10 12:12:10;;;;;;;3.50;2.80;;;;;;;34.43;35.10;100588.25;5071880;28;20123;-64
2023/07/10 12:14:36;;;;;;;4.57;3.20;;;;;;;34.57;35.41;100588.13;5071902;28;20040;-64
2023/07/10 12:17:06;;;;;;;4.03;3.37;;;;;;;34.50;36.00;100591.38;5075093;28;20105;-64
2023/07/10 12:19:34;;;;;;;4.25;2.70;;;;;;;34.53;36.83;100586.00;5085971;28;20047;-66
2023/07/10 12:22:02;;;;;;;3.45;2.83;;;;;;;34.90;35.35;100577.34;5092088;28;20089;-64
2023/07/10 12:24:27;;;;;;;3.80;2.95;;;;;;;35.32;35.32;100579.19;5092501;28;20036;-63
2023/07/10 12:26:54;;;;;;;3.63;3.00;;;;;;;35.75;35.15;100589.28;5091987;28;20561;-64
2023/07/10 12:29:20;;;;;;;4.18;2.67;;;;;;;36.07;33.39;100589.78;5092025;28;20040;-64
2023/07/10 12:31:46;;;;;;;3.30;2.70;;;;;;;36.18;32.11;100581.88;5091836;28;20040;-64
2023/07/10 12:34:30;;;;;;;5.50;3.00;;;;;;;36.15;31.51;100583.38;5092013;28;20047;-66
2023/07/10 12:37:00;;;;;;;5.38;2.88;;;;;;;35.93;32.64;100576.19;5091418;28;20290;-62
2023/07/10 12:39:26;;;;;;;3.85;2.83;;;;;;;36.04;32.88;100585.72;5091612;28;20032;-62
2023/07/10 12:41:53;;;;;;;3.35;2.60;;;;;;;36.19;32.32;100584.31;5091913;28;20512;-64
2023/07/10 12:44:27;;;;;;;6.22;3.08;;;;;;;36.39;32.46;100580.78;5095816;28;20485;-64
2023/07/10 12:47:05;;;;;;;6.18;2.85;;;;;;;36.54;33.20;100584.88;5095952;28;20040;-63
2023/07/10 12:49:32;;;;;;;5.10;2.70;;;;;;;36.74;31.87;100577.69;5095518;28;20043;-62
2023/07/10 12:51:59;;;;;;;4.07;2.80;;;;;;;36.85;31.46;100567.78;5094419;28;20084;-64
2023/07/10 12:54:41;;;;;;;4.00;2.92;;;;;;;36.72;31.04;100568.88;5095820;28;20040;-65
2023/07/10 12:57:18;;;;;;;4.10;2.97;;;;;;;37.06;31.23;100570.50;5095743;28;20527;-63
2023/07/10 12:59:47;;;;;;;4.50;2.65;;;;;;;37.39;31.77;100566.88;5095496;28;20044;-65
2023/07/10 13:02:38;;;;;;;3.22;2.78;;;;;;;37.81;29.90;100563.88;5095635;28;20489;-63
2023/07/10 13:05:14;;;;;;;4.18;2.85;;;;;;;37.57;29.05;100561.91;5092545;28;20048;-64
2023/07/10 13:07:41;;;;;;;3.10;2.80;;;;;;;37.72;28.42;100566.75;5095723;28;20116;-63
2023/07/10 13:10:20;;;;;;;4.13;2.92;;;;;;;37.25;28.67;100564.41;5095178;28;20331;-63
2023/07/10 13:12:48;;;;;;;4.57;2.38;;;;;;;37.18;29.13;100567.75;5095473;28;20138;-65
2023/07/10 13:15:14;;;;;;;5.35;2.67;;;;;;;37.30;28.95;100561.41;5095343;28;20040;-64
2023/07/10 13:17:46;;;;;;;4.28;2.80;;;;;;;37.12;28.57;100555.25;5095434;28;20032;-64
2023/07/10 13:20:23;;;;;;;3.70;2.90;;;;;;;36.85;29.62;100565.00;5094954;28;20485;-64
2023/07/10 13:22:51;;;;;;;3.40;2.40;;;;;;;36.45;29.99;100552.81;5095123;28;20044;-63
2023/07/10 13:25:16;;;;;;;2.67;2.30;;;;;;;36.20;30.91;100552.69;5095070;28;20097;-64
2023/07/10 13:27:42;;;;;;;3.30;2.33;;;;;;;35.69;30.23;100560.16;5095215;28;20044;-64
2023/07/10 13:30:19;;;;;;;7.03;2.90;;;;;;;35.60;30.56;100557.44;5094843;28;20035;-64
2023/07/10 13:32:45;;;;;;;4.90;3.05;;;;;;;35.50;30.99;100557.00;5094994;28;20503;-65
2023/07/10 13:35:11;;;;;;;3.45;2.33;;;;;;;35.15;31.49;100554.34;5095107;28;20073;-64
2023/07/10 13:37:36;;;;;;;4.00;2.60;;;;;;;34.91;31.25;100565.94;5094970;28;20036;-64
2023/07/10 13:40:03;;;;;;;3.23;2.67;;;;;;;34.65;32.23;100551.34;5094699;28;20733;-64
2023/07/10 13:42:28;;;;;;;4.18;2.80;;;;;;;34.55;32.62;100556.03;5094949;28;20032;-64
2023/07/10 13:44:54;;;;;;;4.17;2.53;;;;;;;34.44;32.85;100557.53;5094895;28;20082;-64
2023/07/10 13:47:25;;;;;;;3.87;2.73;;;;;;;34.45;32.92;100559.16;5094787;28;20157;-63
2023/07/10 13:49:51;;;;;;;4.20;2.70;;;;;;;34.21;31.78;100548.53;5094502;28;20508;-63
2023/07/10 13:52:20;;;;;;;2.80;2.30;;;;;;;34.45;31.51;100552.81;5094670;28;20043;-65
2023/07/10 13:54:46;;;;;;;4.32;2.50;;;;;;;34.24;30.84;100549.88;5094238;28;20047;-64
2023/07/10 13:57:19;;;;;;;3.07;2.50;;;;;;;34.08;31.70;100568.03;5094669;28;20055;-62
2023/07/10 13:59:46;;;;;;;4.05;3.15;;;;;;;33.83;31.12;100556.59;5094311;28;20040;-64
2023/07/10 14:02:28;;;;;;;3.47;2.38;;;;;;;33.50;31.40;100553.41;5094610;28;20106;-64
2023/07/10 14:04:58;;;;;;;3.58;2.42;;;;;;;33.38;32.63;100553.16;5094511;28;20033;-63
2023/07/10 14:07:27;;;;;;;5.40;2.83;;;;;;;33.44;33.19;100555.50;5094397;28;20085;-65
2023/07/10 14:09:58;;;;;;;4.65;2.47;;;;;;;33.51;33.86;100545.94;5094233;28;20020;-62
2023/07/10 14:12:25;;;;;;;5.05;2.60;;;;;;;33.50;33.67;100550.66;5094307;28;20044;-64
2023/07/10 14:14:50;;;;;;;5.85;2.47;;;;;;;33.59;32.22;100546.00;5094326;28;20040;-64
2023/07/10 14:17:21;;;;;;;4.03;2.60;;;;;;;33.55;33.65;100550.50;5094368;28;20051;-64
2023/07/10 14:19:51;;;;;;;5.55;2.70;;;;;;;33.38;32.98;100551.22;5094073;28;20477;-65
2023/07/10 14:22:16;;;;;;;3.53;2.38;;;;;;;33.37;32.21;100548.78;5094272;28;20032;-65
2023/07/10 14:24:43;;;;;;;7.23;3.07;;;;;;;33.23;32.02;100540.59;5094080;28;20178;-65
2023/07/10 14:27:29;;;;;;;4.57;2.67;;;;;;;33.06;32.33;100530.31;5094054;28;20063;-65
2023/07/10 14:29:56;;;;;;;3.22;2.20;;;;;;;33.07;31.96;100529.19;5093555;28;20048;-65
2023/07/10 14:32:23;;;;;;;3.80;2.25;;;;;;;32.80;31.54;100529.31;5093918;28;20036;-65
2023/07/10 14:34:49;;;;;;;4.05;2.72;;;;;;;32.84;32.35;100522.84;5093996;28;20024;-65
2023/07/10 14:37:16;;;;;;;3.87;2.80;;;;;;;32.63;31.91;100530.84;5093845;28;20036;-65
2023/07/10 14:39:42;;;;;;;4.78;2.28;;;;;;;32.66;32.47;100529.38;5093622;28;20060;-64
2023/07/10 14:42:14;;;;;;;3.67;2.53;;;;;;;32.78;33.34;100523.28;5093891;28;20485;-64
2023/07/10 14:44:39;;;;;;;3.85;2.63;;;;;;;32.76;32.40;100528.31;5093686;28;20131;-65
2023/07/10 14:47:15;;;;;;;4.60;2.83;;;;;;;32.75;32.07;100521.19;5093698;28;20130;-65
2023/07/10 14:49:40;;;;;;;4.10;2.50;;;;;;;32.72;32.18;100519.03;5093450;28;20052;-66
2023/07/10 14:52:16;;;;;;;4.23;2.40;;;;;;;32.77;32.86;100513.41;5093631;28;20024;-64
2023/07/10 14:54:42;;;;;;;3.40;2.05;;;;;;;32.80;33.44;100508.09;5093614;28;20028;-65
2023/07/10 14:57:28;;;;;;;2.90;2.33;;;;;;;32.55;31.66;100512.28;5093448;28;20043;-65
2023/07/10 14:59:54;;;;;;;3.53;2.35;;;;;;;32.59;32.15;100507.75;5093154;28;20409;-63
2023/07/10 15:02:23;;;;;;;5.33;2.57;;;;;;;32.60;32.80;100503.06;5093480;28;20031;-65
2023/07/10 15:04:49;;;;;;;4.43;2.72;;;;;;;32.70;33.08;100500.06;5091512;28;20032;-65
2023/07/10 15:07:15;;;;;;;;;;;;;;;32.60;32.06;100497.53;5093409;28;20042;-65
2023/07/10 15:09:42;;;;;;;4.30;2.67;;;;;;;32.55;32.48;100501.28;5093092;28;19915;-65
2023/07/10 15:12:19;;;;;;;;;;;;;;;32.61;31.95;100502.78;5093664;28;20032;-64
2023/07/10 15:14:45;;;;;;;4.72;2.15;;;;;;;32.67;32.66;100504.28;5093128;28;19912;-65
2023/07/10 15:17:24;;;;;;;4.70;2.53;;;;;;;32.50;32.17;100495.88;5093218;28;20032;-66
2023/07/10 15:19:51;;;;;;;4.90;2.50;;;;;;;32.53;32.95;100498.00;5092772;28;20137;-66
2023/07/10 15:22:19;;;;;;;3.65;2.67;;;;;;;32.47;32.73;100490.97;5092883;28;20059;-65
2023/07/10 15:24:47;;;;;;;4.43;2.33;;;;;;;32.45;32.80;100493.25;5092938;28;20028;-65
2023/07/10 15:27:12;;;;;;;5.10;2.65;;;;;;;32.38;32.10;100503.91;5092868;28;20028;-64
2023/07/10 15:29:38;;;;;;;5.47;2.43;;;;;;;32.38;32.20;100490.13;5092593;28;20394;-65
2023/07/10 15:32:06;;;;;;;3.80;2.47;;;;;;;32.37;32.90;100494.00;5092942;28;20469;-66
2023/07/10 15:34:34;;;;;;;4.78;2.40;;;;;;;32.31;32.78;100492.47;5092769;28;20027;-65
2023/07/10 15:36:59;;;;;;;4.43;2.72;;;;;;;32.02;32.89;100487.38;5092937;28;20081;-66
2023/07/10 15:39:25;;;;;;;3.97;2.37;;;;;;;32.01;33.58;100488.47;5092400;28;20032;-64
2023/07/10 15:41:51;;;;;;;5.07;2.97;;;;;;;32.01;33.43;100480.22;5092453;28;20420;-62
2023/07/10 15:44:16;;;;;;;4.40;2.87;;;;;;;31.91;32.70;100489.53;5092644;28;20036;-64
2023/07/10 15:46:43;;;;;;;4.23;2.53;;;;;;;31.89;32.92;100486.28;5092497;28;20079;-65
2023/07/10 15:49:18;;;;;;;3.70;2.58;;;;;;;31.90;32.46;100485.16;5092218;28;20071;-65
2023/07/10 15:51:44;;;;;;;3.75;2.72;;;;;;;31.76;32.58;100484.34;5092402;28;20105;-65
2023/07/10 15:54:12;;;;;;;4.47;2.95;;;;;;;31.78;33.22;100482.94;5092464;28;20464;-65
2023/07/10 15:56:38;;;;;;;3.63;2.65;;;;;;;31.81;33.93;100482.31;5092373;28;20122;-64
2023/07/10 15:59:10;;;;;;;4.93;2.80;;;;;;;31.73;33.53;100477.50;5092177;28;20101;-63